createdAt,value
2019-05-22T00:01:20.339Z,10.73
2019-05-22T00:03:54.022Z,10.85
2019-05-22T00:06:25.732Z,10.76
2019-05-22T00:08:56.854Z,10.81
2019-05-22T00:11:28.084Z,10.79
2019-05-22T00:13:59.641Z,10.77
2019-05-22T00:16:30.671Z,10.76
2019-05-22T00:19:00.081Z,10.79
2019-05-22T00:21:30.127Z,10.88
2019-05-22T00:24:00.193Z,10.88
2019-05-22T00:26:30.191Z,10.78
2019-05-22T00:28:59.605Z,10.77
2019-05-22T00:31:29.939Z,10.76
2019-05-22T00:34:00.131Z,10.75
2019-05-22T00:36:29.871Z,10.61
2019-05-22T00:39:00.538Z,10.56
2019-05-22T00:41:32.655Z,10.55
2019-05-22T00:44:04.084Z,10.53
2019-05-22T00:46:33.952Z,10.53
2019-05-22T00:49:03.951Z,10.46
2019-05-22T00:51:36.407Z,10.39
2019-05-22T00:54:24.049Z,10.33
2019-05-22T00:56:56.439Z,10.39
2019-05-22T00:59:31.583Z,10.29
2019-05-22T01:02:05.065Z,10.23
2019-05-22T01:04:36.802Z,10.20
2019-05-22T01:07:18.168Z,10.24
2019-05-22T01:09:52.928Z,10.17
2019-05-22T01:12:34.032Z,10.20
2019-05-22T01:15:07.235Z,10.08
2019-05-22T01:17:38.124Z,9.98
2019-05-22T01:20:10.420Z,9.88
2019-05-22T01:22:41.621Z,9.76
2019-05-22T01:25:14.301Z,9.63
2019-05-22T01:27:45.864Z,9.56
2019-05-22T01:30:19.253Z,9.48
2019-05-22T01:32:51.881Z,9.39
2019-05-22T01:35:22.944Z,9.36
2019-05-22T01:37:53.119Z,9.25
2019-05-22T01:40:45.115Z,9.23
2019-05-22T01:43:20.977Z,9.17
2019-05-22T01:45:52.568Z,9.16
2019-05-22T01:48:25.870Z,9.18
2019-05-22T01:51:00.297Z,9.13
2019-05-22T01:53:34.394Z,9.13
2019-05-22T01:56:08.649Z,9.15
2019-05-22T01:58:39.156Z,9.25
2019-05-22T02:01:13.278Z,9.20
2019-05-22T02:03:44.761Z,9.10
2019-05-22T02:06:14.945Z,8.99
2019-05-22T02:08:51.532Z,8.89
2019-05-22T02:11:23.355Z,8.78
2019-05-22T02:14:12.412Z,8.71
2019-05-22T02:16:56.344Z,8.65
2019-05-22T02:19:16.513Z,8.60
2019-05-22T02:21:46.126Z,8.55
2019-05-22T02:24:15.961Z,8.56
2019-05-22T02:26:45.919Z,8.47
2019-05-22T02:29:17.329Z,8.42
2019-05-22T02:31:48.003Z,8.39
2019-05-22T02:34:17.952Z,8.39
2019-05-22T02:36:48.385Z,8.40
2019-05-22T02:39:26.180Z,8.39
2019-05-22T02:41:59.666Z,8.36
2019-05-22T02:44:29.710Z,8.30
2019-05-22T02:47:18.352Z,8.35
2019-05-22T02:49:35.956Z,8.37
2019-05-22T02:52:09.910Z,8.33
2019-05-22T02:54:39.860Z,8.32
2019-05-22T02:57:10.973Z,8.44
2019-05-22T02:59:42.317Z,8.50
2019-05-22T03:02:14.059Z,8.47
2019-05-22T03:05:03.683Z,8.47
2019-05-22T03:07:33.701Z,8.43
2019-05-22T03:10:05.748Z,8.37
2019-05-22T03:12:36.375Z,8.30
2019-05-22T03:15:08.775Z,8.21
2019-05-22T03:17:40.850Z,8.13
2019-05-22T03:20:13.710Z,8.06
2019-05-22T03:22:46.150Z,8.00
2019-05-22T03:25:18.202Z,7.98
2019-05-22T03:27:50.604Z,7.95
2019-05-22T03:30:33.892Z,7.99
2019-05-22T03:33:06.238Z,8.00
2019-05-22T03:35:47.941Z,8.03
2019-05-22T03:38:18.866Z,8.02
2019-05-22T03:40:51.498Z,8.01
2019-05-22T03:43:28.259Z,7.99
2019-05-22T03:46:00.574Z,7.98
2019-05-22T03:48:36.254Z,7.99
2019-05-22T03:51:14.301Z,8.00
2019-05-22T03:53:46.271Z,8.01
2019-05-22T03:56:17.375Z,7.99
2019-05-22T03:58:47.023Z,8.01
2019-05-22T04:01:17.686Z,8.07
2019-05-22T04:03:48.332Z,8.16
2019-05-22T04:06:19.398Z,8.16
2019-05-22T04:08:50.502Z,8.16
2019-05-22T04:11:21.452Z,8.18
2019-05-22T04:13:50.856Z,8.28
2019-05-22T04:16:22.191Z,8.32
2019-05-22T04:18:52.175Z,8.49
2019-05-22T04:21:21.588Z,8.77
2019-05-22T04:23:51.355Z,8.79
2019-05-22T04:26:20.855Z,8.91
2019-05-22T04:28:52.961Z,8.96
2019-05-22T04:31:35.348Z,9.05
2019-05-22T04:34:05.153Z,9.12
2019-05-22T04:36:35.609Z,9.15
2019-05-22T04:39:09.267Z,9.20
2019-05-22T04:41:39.007Z,9.23
2019-05-22T04:44:08.457Z,9.33
2019-05-22T04:46:38.220Z,9.40
2019-05-22T04:49:07.688Z,9.46
2019-05-22T04:51:37.099Z,9.57
2019-05-22T04:54:06.657Z,9.65
2019-05-22T04:56:36.743Z,9.74
2019-05-22T04:59:06.616Z,9.86
2019-05-22T05:01:37.292Z,10.01
2019-05-22T05:04:06.938Z,10.04
2019-05-22T05:06:37.726Z,10.05
2019-05-22T05:09:09.857Z,10.11
2019-05-22T05:11:39.908Z,10.14
2019-05-22T05:14:09.420Z,10.20
2019-05-22T05:16:39.103Z,10.24
2019-05-22T05:19:08.960Z,10.42
2019-05-22T05:21:39.128Z,10.52
2019-05-22T05:24:08.704Z,10.66
2019-05-22T05:26:39.098Z,10.77
2019-05-22T05:29:11.269Z,10.84
2019-05-22T05:31:41.212Z,10.95
2019-05-22T05:34:38.336Z,11.08
2019-05-22T05:37:09.748Z,11.17
2019-05-22T05:39:43.982Z,11.25
2019-05-22T05:42:13.580Z,11.40
2019-05-22T05:44:42.975Z,11.50
2019-05-22T05:47:12.572Z,11.58
2019-05-22T05:49:42.742Z,11.61
2019-05-22T05:52:13.217Z,11.57
2019-05-22T05:54:43.536Z,11.85
2019-05-22T05:57:36.363Z,12.04
2019-05-22T06:00:12.306Z,12.15
2019-05-22T06:02:55.682Z,12.19
2019-05-22T06:05:14.380Z,12.30
2019-05-22T06:07:44.302Z,12.50
2019-05-22T06:10:25.750Z,12.67
2019-05-22T06:12:55.547Z,12.79
2019-05-22T06:15:46.580Z,12.81
2019-05-22T06:18:29.758Z,13.05
2019-05-22T06:21:03.985Z,13.21
2019-05-22T06:23:33.907Z,13.04
2019-05-22T06:26:04.857Z,13.31
2019-05-22T06:28:38.000Z,13.40
2019-05-22T06:31:10.635Z,13.49
2019-05-22T06:33:41.167Z,13.59
2019-05-22T06:36:13.220Z,13.59
2019-05-22T06:38:48.658Z,13.69
2019-05-22T06:41:20.080Z,14.08
2019-05-22T06:44:21.731Z,14.27
2019-05-22T06:46:51.136Z,14.52
2019-05-22T06:49:35.754Z,14.63
2019-05-22T06:52:07.447Z,14.46
2019-05-22T06:54:38.274Z,14.38
2019-05-22T06:57:13.444Z,14.50
2019-05-22T06:59:43.465Z,14.40
2019-05-22T07:02:14.996Z,14.49
2019-05-22T07:04:44.940Z,14.69
2019-05-22T07:07:15.570Z,14.68
2019-05-22T07:09:45.635Z,14.70
2019-05-22T07:12:17.439Z,14.68
2019-05-22T07:15:06.373Z,14.60
2019-05-22T07:17:37.475Z,14.73
2019-05-22T07:20:08.017Z,14.81
2019-05-22T07:22:37.415Z,14.92
2019-05-22T07:25:09.441Z,15.05
2019-05-22T07:27:39.839Z,15.04
2019-05-22T07:30:11.215Z,15.24
2019-05-22T07:32:41.068Z,15.51
2019-05-22T07:35:10.561Z,15.41
2019-05-22T07:37:45.221Z,15.25
2019-05-22T07:40:15.359Z,15.47
2019-05-22T07:42:45.207Z,15.30
2019-05-22T07:45:15.735Z,15.29
2019-05-22T07:47:46.563Z,14.97
2019-05-22T07:50:17.312Z,14.81
2019-05-22T07:52:47.983Z,14.78
2019-05-22T07:55:19.826Z,14.82
2019-05-22T07:57:51.764Z,14.66
2019-05-22T08:00:21.843Z,14.62
2019-05-22T08:02:51.542Z,14.73
2019-05-22T08:05:23.313Z,14.71
2019-05-22T08:07:53.687Z,14.83
2019-05-22T08:10:23.736Z,14.76
2019-05-22T08:12:53.377Z,15.28
2019-05-22T08:15:23.689Z,15.33
2019-05-22T08:17:53.098Z,15.52
2019-05-22T08:20:22.850Z,15.57
2019-05-22T08:22:55.376Z,15.79
2019-05-22T08:25:25.026Z,16.21
2019-05-22T08:27:55.887Z,16.12
2019-05-22T08:30:25.936Z,16.17
2019-05-22T08:32:58.317Z,16.03
2019-05-22T08:35:28.533Z,16.24
2019-05-22T08:37:58.294Z,17.06
2019-05-22T08:40:30.681Z,17.94
2019-05-22T08:43:00.617Z,18.95
2019-05-22T08:45:30.455Z,19.55
2019-05-22T08:48:00.032Z,20.36
2019-05-22T08:50:31.052Z,21.22
2019-05-22T08:53:01.035Z,21.64
2019-05-22T08:55:34.341Z,22.15
2019-05-22T08:58:04.625Z,22.43
2019-05-22T09:00:34.792Z,22.46
2019-05-22T09:03:04.828Z,23.47
2019-05-22T09:05:34.729Z,24.40
2019-05-22T09:08:04.237Z,24.21
2019-05-22T09:10:33.884Z,24.97
2019-05-22T09:13:03.642Z,24.73
2019-05-22T09:15:34.857Z,24.65
2019-05-22T09:18:05.028Z,25.06
2019-05-22T09:20:48.715Z,26.65
2019-05-22T09:23:06.095Z,27.43
2019-05-22T09:25:35.819Z,27.70
2019-05-22T09:28:07.204Z,26.08
2019-05-22T09:30:37.057Z,24.28
2019-05-22T09:33:08.419Z,23.53
2019-05-22T09:35:38.109Z,24.18
2019-05-22T09:38:07.949Z,24.79
2019-05-22T09:40:37.536Z,25.27
2019-05-22T09:43:07.029Z,24.93
2019-05-22T09:45:36.998Z,23.88
2019-05-22T09:48:08.054Z,24.39
2019-05-22T09:50:37.678Z,25.15
2019-05-22T09:53:07.927Z,24.89
2019-05-22T09:55:38.231Z,25.43
2019-05-22T09:58:08.295Z,26.92
2019-05-22T10:00:38.427Z,29.20
2019-05-22T10:03:08.697Z,30.21
2019-05-22T10:05:38.491Z,31.62
2019-05-22T10:08:08.270Z,33.07
2019-05-22T10:10:37.943Z,32.73
2019-05-22T10:13:07.489Z,30.00
2019-05-22T10:15:37.523Z,30.89
2019-05-22T10:18:07.062Z,31.62
2019-05-22T10:20:36.872Z,33.28
2019-05-22T10:23:15.660Z,35.19
2019-05-22T10:25:38.833Z,37.37
2019-05-22T10:28:08.938Z,38.46
2019-05-22T10:30:38.517Z,37.72
2019-05-22T10:33:08.411Z,37.82
2019-05-22T10:35:39.462Z,35.35
2019-05-22T10:38:09.362Z,34.98
2019-05-22T10:40:39.152Z,33.82
2019-05-22T10:43:08.795Z,33.06
2019-05-22T10:45:38.765Z,33.16
2019-05-22T10:48:08.225Z,34.13
2019-05-22T10:50:37.876Z,34.39
2019-05-22T10:53:07.943Z,32.35
2019-05-22T10:55:37.595Z,30.80
2019-05-22T10:58:08.138Z,31.12
2019-05-22T11:00:38.049Z,33.50
2019-05-22T11:03:07.614Z,36.28
2019-05-22T11:05:37.239Z,38.14
2019-05-22T11:08:07.476Z,39.38
2019-05-22T11:10:37.052Z,38.06
2019-05-22T11:13:10.117Z,38.24
2019-05-22T11:15:39.648Z,37.29
2019-05-22T11:18:10.449Z,35.07
2019-05-22T11:20:40.606Z,35.41
2019-05-22T11:23:10.065Z,34.47
2019-05-22T11:25:39.651Z,35.31
2019-05-22T11:28:09.097Z,35.16
2019-05-22T11:30:39.243Z,35.61
2019-05-22T11:33:09.349Z,35.45
2019-05-22T11:35:39.021Z,36.94
2019-05-22T11:38:09.197Z,38.60
2019-05-22T11:40:40.613Z,39.53
2019-05-22T11:43:11.219Z,38.61
2019-05-22T11:45:44.772Z,38.24
2019-05-22T11:48:12.014Z,38.10
2019-05-22T11:50:43.233Z,39.59
2019-05-22T11:53:13.693Z,39.27
2019-05-22T11:55:46.153Z,39.88
2019-05-22T11:58:14.821Z,37.61
2019-05-22T12:00:44.312Z,37.93
2019-05-22T12:03:14.161Z,38.28
2019-05-22T12:05:44.831Z,39.06
2019-05-22T12:08:15.163Z,40.30
2019-05-22T12:10:45.139Z,39.77
2019-05-22T12:13:15.186Z,37.25
2019-05-22T12:15:45.129Z,36.09
2019-05-22T12:18:15.079Z,36.18
2019-05-22T12:20:44.741Z,36.46
2019-05-22T12:23:14.249Z,36.66
2019-05-22T12:25:43.867Z,36.86
2019-05-22T12:28:13.525Z,36.58
2019-05-22T12:30:43.950Z,34.29
2019-05-22T12:33:14.482Z,32.76
2019-05-22T12:35:44.892Z,31.41
2019-05-22T12:38:14.936Z,30.30
2019-05-22T12:40:45.053Z,29.99
2019-05-22T12:43:15.998Z,30.03
2019-05-22T12:45:45.914Z,29.84
2019-05-22T12:48:15.951Z,29.87
2019-05-22T12:50:45.572Z,28.25
2019-05-22T12:53:15.163Z,27.83
2019-05-22T12:55:44.840Z,27.74
2019-05-22T12:58:14.595Z,27.07
2019-05-22T13:00:44.569Z,26.28
2019-05-22T13:03:15.167Z,26.40
2019-05-22T13:05:45.305Z,26.69
2019-05-22T13:08:15.220Z,26.58
2019-05-22T13:10:46.009Z,26.86
2019-05-22T13:13:15.939Z,26.84
2019-05-22T13:15:46.005Z,26.63
2019-05-22T13:18:18.460Z,26.13
2019-05-22T13:20:50.820Z,25.73
2019-05-22T13:23:23.178Z,25.47
2019-05-22T13:25:53.321Z,25.22
2019-05-22T13:28:23.841Z,24.69
2019-05-22T13:30:55.341Z,24.69
2019-05-22T13:33:27.681Z,24.48
2019-05-22T13:35:57.689Z,24.72
2019-05-22T13:38:28.334Z,24.80
2019-05-22T13:40:58.239Z,24.02
2019-05-22T13:43:28.681Z,23.80
2019-05-22T13:45:58.071Z,23.89
2019-05-22T13:48:28.383Z,24.13
2019-05-22T13:50:59.204Z,23.82
2019-05-22T13:53:29.923Z,23.72
2019-05-22T13:55:59.472Z,23.74
2019-05-22T13:58:30.708Z,23.77
2019-05-22T14:01:00.100Z,23.69
2019-05-22T14:03:30.411Z,23.81
2019-05-22T14:06:00.361Z,24.09
2019-05-22T14:08:29.999Z,24.26
2019-05-22T14:10:59.580Z,24.44
2019-05-22T14:13:29.735Z,24.40
2019-05-22T14:15:59.316Z,24.11
2019-05-22T14:18:28.907Z,24.13
2019-05-22T14:20:58.887Z,23.88
2019-05-22T14:23:29.032Z,23.94
2019-05-22T14:25:58.688Z,23.71
2019-05-22T14:28:28.699Z,23.74
2019-05-22T14:30:58.566Z,23.91
2019-05-22T14:33:29.253Z,23.70
2019-05-22T14:36:02.756Z,23.63
2019-05-22T14:38:32.958Z,23.54
2019-05-22T14:41:03.589Z,23.43
2019-05-22T14:43:33.064Z,23.26
2019-05-22T14:46:03.131Z,22.75
2019-05-22T14:48:33.558Z,22.49
2019-05-22T14:51:02.982Z,22.47
2019-05-22T14:53:33.517Z,22.31
2019-05-22T14:56:03.663Z,22.08
2019-05-22T14:58:33.978Z,22.11
2019-05-22T15:01:04.397Z,22.31
2019-05-22T15:03:34.433Z,22.27
2019-05-22T15:06:04.558Z,22.30
2019-05-22T15:08:34.222Z,22.74
2019-05-22T15:11:03.917Z,23.16
2019-05-22T15:13:34.233Z,23.44
2019-05-22T15:16:03.896Z,23.47
2019-05-22T15:18:33.467Z,23.48
2019-05-22T15:21:05.048Z,23.79
2019-05-22T15:23:36.925Z,23.87
2019-05-22T15:26:06.516Z,23.24
2019-05-22T15:28:36.361Z,23.48
2019-05-22T15:31:06.195Z,23.43
2019-05-22T15:33:36.080Z,22.84
2019-05-22T15:36:08.122Z,22.77
2019-05-22T15:38:40.927Z,22.56
2019-05-22T15:41:11.253Z,22.75
2019-05-22T15:43:43.470Z,22.69
2019-05-22T15:46:15.517Z,22.55
2019-05-22T15:48:47.332Z,22.39
2019-05-22T15:51:20.901Z,22.50
2019-05-22T15:53:51.998Z,22.83
2019-05-22T15:56:21.940Z,23.33
2019-05-22T15:58:54.780Z,23.46
2019-05-22T16:01:25.582Z,23.65
2019-05-22T16:03:56.718Z,23.55
2019-05-22T16:06:29.997Z,23.22
2019-05-22T16:09:01.796Z,23.13
2019-05-22T16:11:31.458Z,22.77
2019-05-22T16:14:01.787Z,22.56
2019-05-22T16:16:33.013Z,22.37
2019-05-22T16:19:05.530Z,22.00
2019-05-22T16:21:38.443Z,21.89
2019-05-22T16:24:10.660Z,21.63
2019-05-22T16:26:41.194Z,21.41
2019-05-22T16:29:11.611Z,21.25
2019-05-22T16:31:43.651Z,20.98
2019-05-22T16:34:14.270Z,20.94
2019-05-22T16:36:47.849Z,20.97
2019-05-22T16:39:17.613Z,21.23
2019-05-22T16:41:47.543Z,21.40
2019-05-22T16:44:17.533Z,21.46
2019-05-22T16:46:48.733Z,21.50
2019-05-22T16:49:18.179Z,21.39
2019-05-22T16:51:48.703Z,21.31
2019-05-22T16:54:21.155Z,21.14
2019-05-22T16:56:51.539Z,21.12
2019-05-22T16:59:21.474Z,20.88
2019-05-22T17:01:59.669Z,20.62
2019-05-22T17:04:22.597Z,20.66
2019-05-22T17:06:52.256Z,20.55
2019-05-22T17:09:21.816Z,20.61
2019-05-22T17:11:52.464Z,20.62
2019-05-22T17:14:23.588Z,20.73
2019-05-22T17:16:53.083Z,20.84
2019-05-22T17:19:27.419Z,21.01
2019-05-22T17:21:55.158Z,21.12
2019-05-22T17:24:25.094Z,21.19
2019-05-22T17:26:56.056Z,21.12
2019-05-22T17:29:26.397Z,21.10
2019-05-22T17:31:56.553Z,21.10
2019-05-22T17:34:33.762Z,21.10
2019-05-22T17:37:11.067Z,21.12
2019-05-22T17:39:45.871Z,21.16
2019-05-22T17:42:17.572Z,21.12
2019-05-22T17:44:49.494Z,21.00
2019-05-22T17:47:21.829Z,20.93
2019-05-22T17:49:52.222Z,20.85
2019-05-22T17:52:23.332Z,20.78
2019-05-22T17:54:53.580Z,20.61
2019-05-22T17:57:24.113Z,20.61
2019-05-22T17:59:54.544Z,20.38
2019-05-22T18:02:25.662Z,20.22
2019-05-22T18:04:55.343Z,19.96
2019-05-22T18:07:25.735Z,19.77
2019-05-22T18:09:55.490Z,19.62
2019-05-22T18:12:25.667Z,19.56
2019-05-22T18:14:55.320Z,19.52
2019-05-22T18:17:26.449Z,19.46
2019-05-22T18:19:56.098Z,19.36
2019-05-22T18:22:25.529Z,19.22
2019-05-22T18:24:55.101Z,19.13
2019-05-22T18:27:25.495Z,19.00
2019-05-22T18:29:55.148Z,18.91
2019-05-22T18:32:24.770Z,18.82
2019-05-22T18:34:54.303Z,18.68
2019-05-22T18:37:23.989Z,18.57
2019-05-22T18:39:53.622Z,18.44
2019-05-22T18:42:23.276Z,18.28
2019-05-22T18:44:52.739Z,18.12
2019-05-22T18:47:25.142Z,17.97
2019-05-22T18:49:53.922Z,17.88
2019-05-22T18:52:38.209Z,17.74
2019-05-22T18:54:54.561Z,17.62
2019-05-22T18:57:24.037Z,17.56
2019-05-22T19:00:00.536Z,17.53
2019-05-22T19:02:25.101Z,17.49
2019-05-22T19:04:54.536Z,17.42
2019-05-22T19:07:24.373Z,17.41
2019-05-22T19:09:53.802Z,17.32
2019-05-22T19:12:23.933Z,17.26
2019-05-22T19:14:53.722Z,17.18
2019-05-22T19:17:23.570Z,17.17
2019-05-22T19:19:53.009Z,17.13
2019-05-22T19:22:22.582Z,17.04
2019-05-22T19:24:52.438Z,16.94
2019-05-22T19:27:21.923Z,16.91
2019-05-22T19:29:51.354Z,16.84
2019-05-22T19:32:21.002Z,16.71
2019-05-22T19:34:50.483Z,16.63
2019-05-22T19:37:20.486Z,16.50
2019-05-22T19:39:49.910Z,16.39
2019-05-22T19:42:19.481Z,16.37
2019-05-22T19:44:48.948Z,16.29
2019-05-22T19:47:19.687Z,16.25
2019-05-22T19:49:49.164Z,16.22
2019-05-22T19:52:22.474Z,16.20
2019-05-22T19:54:51.226Z,16.08
2019-05-22T19:57:20.886Z,16.05
2019-05-22T19:59:50.351Z,15.99
2019-05-22T20:02:20.716Z,15.98
2019-05-22T20:04:51.188Z,15.88
2019-05-22T20:07:21.159Z,15.75
2019-05-22T20:09:51.406Z,15.71
2019-05-22T20:12:24.740Z,15.63
2019-05-22T20:14:52.422Z,15.63
2019-05-22T20:17:23.232Z,15.59
2019-05-22T20:19:53.426Z,15.53
2019-05-22T20:22:24.333Z,15.52
2019-05-22T20:24:53.802Z,15.46
2019-05-22T20:27:24.042Z,15.45
2019-05-22T20:29:53.608Z,15.40
2019-05-22T20:32:23.999Z,15.37
2019-05-22T20:34:53.416Z,15.30
2019-05-22T20:37:22.812Z,15.29
2019-05-22T20:39:52.394Z,15.18
2019-05-22T20:42:22.643Z,14.99
2019-05-22T20:44:52.394Z,14.83
2019-05-22T20:47:25.208Z,14.67
2019-05-22T20:49:54.890Z,14.53
2019-05-22T20:52:24.829Z,14.61
2019-05-22T20:54:55.883Z,14.57
2019-05-22T20:57:26.293Z,14.57
2019-05-22T20:59:56.756Z,14.49
2019-05-22T21:02:27.084Z,14.45
2019-05-22T21:04:57.533Z,14.43
2019-05-22T21:07:33.223Z,14.46
2019-05-22T21:10:03.615Z,14.40
2019-05-22T21:12:36.109Z,14.31
2019-05-22T21:15:06.641Z,14.22
2019-05-22T21:17:37.585Z,14.17
2019-05-22T21:20:09.865Z,14.13
2019-05-22T21:22:40.043Z,14.09
2019-05-22T21:25:11.976Z,14.04
2019-05-22T21:27:42.579Z,13.98
2019-05-22T21:30:14.007Z,13.95
2019-05-22T21:32:44.010Z,13.96
2019-05-22T21:35:18.587Z,13.97
2019-05-22T21:37:48.054Z,13.97
2019-05-22T21:40:21.085Z,13.95
2019-05-22T21:42:52.241Z,13.95
2019-05-22T21:45:22.811Z,13.94
2019-05-22T21:47:52.641Z,13.80
2019-05-22T21:50:22.591Z,13.72
2019-05-22T21:52:53.402Z,13.55
2019-05-22T21:55:24.167Z,13.46
2019-05-22T21:57:55.176Z,13.42
2019-05-22T22:00:34.866Z,13.33
2019-05-22T22:03:05.879Z,13.30
2019-05-22T22:05:35.841Z,13.32
2019-05-22T22:08:05.584Z,13.40
2019-05-22T22:10:35.464Z,13.41
2019-05-22T22:13:07.888Z,13.42
2019-05-22T22:15:41.910Z,13.38
2019-05-22T22:18:13.160Z,13.35
2019-05-22T22:20:43.582Z,13.32
2019-05-22T22:23:15.320Z,13.27
2019-05-22T22:25:46.765Z,13.17
2019-05-22T22:28:18.176Z,13.11
2019-05-22T22:30:55.204Z,13.06
2019-05-22T22:33:32.234Z,13.05
2019-05-22T22:36:03.368Z,13.03
2019-05-22T22:38:35.272Z,12.99
2019-05-22T22:41:07.174Z,12.94
2019-05-22T22:43:39.499Z,12.90
2019-05-22T22:46:19.242Z,12.86
2019-05-22T22:48:51.698Z,12.85
2019-05-22T22:51:22.569Z,12.88
2019-05-22T22:53:53.616Z,12.89
2019-05-22T22:56:23.859Z,12.98
2019-05-22T22:58:53.805Z,13.06
2019-05-22T23:01:27.912Z,13.08
2019-05-22T23:04:01.010Z,13.13
2019-05-22T23:06:31.639Z,13.11
2019-05-22T23:09:01.942Z,13.08
2019-05-22T23:11:32.603Z,13.06
2019-05-22T23:14:02.969Z,13.00
2019-05-22T23:16:32.361Z,12.87
2019-05-22T23:19:14.451Z,12.81
2019-05-22T23:21:44.356Z,12.75
2019-05-22T23:24:14.266Z,12.69
2019-05-22T23:26:44.731Z,12.69
2019-05-22T23:29:14.192Z,12.65
2019-05-22T23:31:44.275Z,12.63
2019-05-22T23:34:13.944Z,12.59
2019-05-22T23:36:45.284Z,12.55
2019-05-22T23:39:15.414Z,12.54
2019-05-22T23:41:46.514Z,12.56
2019-05-22T23:44:19.490Z,12.49
2019-05-22T23:46:49.803Z,12.52
2019-05-22T23:49:19.189Z,12.51
2019-05-22T23:51:48.800Z,12.53
2019-05-22T23:54:18.532Z,12.44
2019-05-22T23:56:49.731Z,12.35
2019-05-22T23:59:19.530Z,12.22
